createdAt,value
2019-03-30T00:00:36.079Z,6.01
2019-03-30T00:03:04.294Z,6.03
2019-03-30T00:05:33.434Z,6.06
2019-03-30T00:08:02.820Z,6.15
2019-03-30T00:10:32.116Z,6.22
2019-03-30T00:13:00.466Z,6.17
2019-03-30T00:15:28.688Z,6.22
2019-03-30T00:17:57.173Z,6.39
2019-03-30T00:20:25.241Z,6.45
2019-03-30T00:22:53.278Z,6.48
2019-03-30T00:25:22.235Z,6.38
2019-03-30T00:27:50.368Z,6.16
2019-03-30T00:30:19.286Z,6.13
2019-03-30T00:32:48.247Z,6.00
2019-03-30T00:35:16.222Z,5.80
2019-03-30T00:37:44.283Z,5.74
2019-03-30T00:40:12.221Z,5.59
2019-03-30T00:42:40.593Z,5.63
2019-03-30T00:45:08.916Z,5.66
2019-03-30T00:47:37.076Z,5.47
2019-03-30T00:50:05.341Z,5.31
2019-03-30T00:52:33.325Z,5.21
2019-03-30T00:55:01.352Z,5.23
2019-03-30T00:57:29.340Z,5.24
2019-03-30T00:59:57.346Z,5.18
2019-03-30T01:02:25.344Z,5.12
2019-03-30T01:04:53.258Z,5.16
2019-03-30T01:07:21.295Z,5.08
2019-03-30T01:09:49.274Z,5.07
2019-03-30T01:12:17.289Z,5.00
2019-03-30T01:14:45.274Z,4.91
2019-03-30T01:17:13.363Z,5.20
2019-03-30T01:19:41.427Z,5.08
2019-03-30T01:22:09.510Z,4.97
2019-03-30T01:24:37.433Z,4.99
2019-03-30T01:27:05.651Z,4.88
2019-03-30T01:29:33.810Z,4.82
2019-03-30T01:32:01.742Z,4.83
2019-03-30T01:34:29.832Z,4.71
2019-03-30T01:36:57.842Z,4.94
2019-03-30T01:39:25.882Z,4.92
2019-03-30T01:41:53.818Z,5.02
2019-03-30T01:44:21.807Z,4.91
2019-03-30T01:46:49.837Z,4.92
2019-03-30T01:49:17.819Z,5.14
2019-03-30T01:51:45.852Z,5.03
2019-03-30T01:54:13.794Z,4.89
2019-03-30T01:56:41.818Z,4.83
2019-03-30T01:59:09.796Z,4.82
2019-03-30T02:01:37.905Z,4.76
2019-03-30T02:04:05.908Z,4.81
2019-03-30T02:06:33.824Z,4.81
2019-03-30T02:09:01.806Z,4.77
2019-03-30T02:11:29.809Z,4.67
2019-03-30T02:13:57.822Z,4.58
2019-03-30T02:16:25.819Z,4.45
2019-03-30T02:18:53.808Z,4.40
2019-03-30T02:21:21.899Z,4.35
2019-03-30T02:23:49.928Z,4.30
2019-03-30T02:26:17.921Z,4.26
2019-03-30T02:28:45.922Z,4.19
2019-03-30T02:31:13.900Z,4.04
2019-03-30T02:33:41.877Z,4.03
2019-03-30T02:36:09.927Z,3.97
2019-03-30T02:38:37.929Z,4.13
2019-03-30T02:41:05.922Z,4.12
2019-03-30T02:43:33.904Z,4.26
2019-03-30T02:46:01.914Z,3.94
2019-03-30T02:48:29.899Z,3.89
2019-03-30T02:50:57.965Z,3.79
2019-03-30T02:53:25.953Z,3.73
2019-03-30T02:55:53.939Z,3.79
2019-03-30T02:58:21.977Z,3.75
2019-03-30T03:00:50.013Z,3.90
2019-03-30T03:03:18.023Z,3.84
2019-03-30T03:05:46.068Z,3.86
2019-03-30T03:08:14.068Z,3.64
2019-03-30T03:10:42.243Z,3.52
2019-03-30T03:13:10.173Z,3.37
2019-03-30T03:15:38.163Z,3.37
2019-03-30T03:18:06.143Z,3.31
2019-03-30T03:20:34.089Z,3.42
2019-03-30T03:23:02.207Z,3.40
2019-03-30T03:25:30.371Z,3.43
2019-03-30T03:27:58.381Z,3.44
2019-03-30T03:30:26.352Z,3.55
2019-03-30T03:32:54.393Z,3.58
2019-03-30T03:35:22.618Z,3.40
2019-03-30T03:37:50.604Z,3.56
2019-03-30T03:40:18.679Z,3.49
2019-03-30T03:42:46.817Z,3.30
2019-03-30T03:45:14.999Z,3.37
2019-03-30T03:47:42.989Z,3.33
2019-03-30T03:50:28.784Z,3.36
2019-03-30T03:52:56.889Z,3.31
2019-03-30T03:55:25.092Z,3.39
2019-03-30T03:57:53.641Z,3.29
2019-03-30T04:00:21.829Z,3.30
2019-03-30T04:02:51.579Z,3.34
2019-03-30T04:05:23.180Z,3.31
2019-03-30T04:07:53.345Z,3.28
2019-03-30T04:10:24.959Z,3.24
2019-03-30T04:12:56.261Z,3.17
2019-03-30T04:15:24.906Z,3.03
2019-03-30T04:17:53.220Z,3.17
2019-03-30T04:20:23.688Z,3.30
2019-03-30T04:22:53.380Z,3.16
2019-03-30T04:25:23.003Z,3.06
2019-03-30T04:27:51.285Z,2.93
2019-03-30T04:30:19.235Z,3.14
2019-03-30T04:32:47.232Z,3.12
2019-03-30T04:35:15.289Z,2.80
2019-03-30T04:37:43.371Z,2.94
2019-03-30T04:40:11.995Z,2.92
2019-03-30T04:42:40.070Z,3.35
2019-03-30T04:45:08.505Z,3.77
2019-03-30T04:47:36.551Z,4.01
2019-03-30T04:50:04.824Z,4.14
2019-03-30T04:52:32.820Z,3.97
2019-03-30T04:55:00.914Z,4.13
2019-03-30T04:57:29.012Z,4.29
2019-03-30T04:59:56.982Z,4.01
2019-03-30T05:02:25.051Z,4.39
2019-03-30T05:04:53.040Z,4.48
2019-03-30T05:07:21.029Z,4.64
2019-03-30T05:09:49.138Z,4.83
2019-03-30T05:12:17.148Z,5.14
2019-03-30T05:14:46.139Z,5.28
2019-03-30T05:17:14.239Z,5.60
2019-03-30T05:19:42.333Z,5.74
2019-03-30T05:22:12.921Z,5.92
2019-03-30T05:24:40.488Z,6.08
2019-03-30T05:27:08.689Z,6.03
2019-03-30T05:29:36.792Z,6.11
2019-03-30T05:32:04.924Z,6.44
2019-03-30T05:34:33.143Z,6.21
2019-03-30T05:37:01.186Z,6.20
2019-03-30T05:39:29.804Z,6.12
2019-03-30T05:41:58.062Z,6.16
2019-03-30T05:44:26.079Z,6.38
2019-03-30T05:46:54.092Z,6.24
2019-03-30T05:49:22.155Z,6.04
2019-03-30T05:51:50.162Z,6.01
2019-03-30T05:54:19.404Z,6.12
2019-03-30T05:56:47.384Z,6.00
2019-03-30T05:59:15.494Z,5.99
2019-03-30T06:01:43.708Z,6.08
2019-03-30T06:04:11.607Z,6.46
2019-03-30T06:06:39.623Z,6.58
2019-03-30T06:09:07.707Z,6.58
2019-03-30T06:11:35.640Z,6.78
2019-03-30T06:14:03.733Z,7.04
2019-03-30T06:16:31.720Z,7.42
2019-03-30T06:18:59.770Z,7.44
2019-03-30T06:21:27.959Z,7.35
2019-03-30T06:23:56.028Z,7.64
2019-03-30T06:26:24.072Z,7.77
2019-03-30T06:28:52.241Z,7.92
2019-03-30T06:31:20.258Z,7.96
2019-03-30T06:33:48.983Z,8.03
2019-03-30T06:36:16.984Z,8.07
2019-03-30T06:38:44.988Z,7.98
2019-03-30T06:41:13.306Z,8.20
2019-03-30T06:43:41.801Z,7.98
2019-03-30T06:46:09.865Z,8.01
2019-03-30T06:48:37.872Z,8.01
2019-03-30T06:51:05.941Z,8.03
2019-03-30T06:53:33.979Z,8.33
2019-03-30T06:56:01.953Z,8.54
2019-03-30T06:58:31.416Z,8.53
2019-03-30T07:00:59.746Z,8.74
2019-03-30T07:03:28.111Z,9.06
2019-03-30T07:05:57.139Z,9.05
2019-03-30T07:08:28.669Z,8.93
2019-03-30T07:10:58.099Z,9.03
2019-03-30T07:13:27.709Z,9.11
2019-03-30T07:15:57.949Z,9.22
2019-03-30T07:18:25.953Z,9.25
2019-03-30T07:20:54.126Z,9.36
2019-03-30T07:23:22.295Z,9.53
2019-03-30T07:25:50.503Z,9.36
2019-03-30T07:28:18.608Z,9.60
2019-03-30T07:30:47.091Z,9.78
2019-03-30T07:33:15.353Z,9.76
2019-03-30T07:35:43.447Z,9.73
2019-03-30T07:38:11.602Z,10.13
2019-03-30T07:40:39.598Z,10.38
2019-03-30T07:43:08.465Z,10.45
2019-03-30T07:45:36.499Z,10.88
2019-03-30T07:48:04.667Z,10.70
2019-03-30T07:50:33.289Z,10.82
2019-03-30T07:53:01.294Z,11.21
2019-03-30T07:55:29.315Z,11.33
2019-03-30T07:57:57.265Z,11.66
2019-03-30T08:00:30.718Z,11.93
2019-03-30T08:02:56.309Z,12.12
2019-03-30T08:05:24.476Z,11.69
2019-03-30T08:07:52.768Z,11.80
2019-03-30T08:10:21.903Z,11.92
2019-03-30T08:12:50.089Z,11.92
2019-03-30T08:15:18.187Z,11.66
2019-03-30T08:17:46.199Z,11.40
2019-03-30T08:20:14.657Z,11.11
2019-03-30T08:22:42.687Z,10.94
2019-03-30T08:25:11.035Z,10.77
2019-03-30T08:27:39.126Z,10.78
2019-03-30T08:30:07.862Z,11.08
2019-03-30T08:32:35.942Z,11.05
2019-03-30T08:35:04.680Z,11.16
2019-03-30T08:37:32.726Z,11.50
2019-03-30T08:40:00.948Z,11.66
2019-03-30T08:42:29.007Z,11.63
2019-03-30T08:44:57.007Z,11.43
2019-03-30T08:47:25.079Z,11.37
2019-03-30T08:49:53.247Z,11.13
2019-03-30T08:52:21.246Z,10.95
2019-03-30T08:54:49.344Z,10.90
2019-03-30T08:57:17.392Z,11.10
2019-03-30T08:59:45.433Z,11.38
2019-03-30T09:02:13.391Z,11.53
2019-03-30T09:04:41.474Z,11.83
2019-03-30T09:07:09.491Z,11.83
2019-03-30T09:09:37.533Z,11.34
2019-03-30T09:12:05.500Z,11.20
2019-03-30T09:14:33.600Z,11.10
2019-03-30T09:17:01.649Z,11.15
2019-03-30T09:19:29.732Z,11.29
2019-03-30T09:21:57.821Z,11.43
2019-03-30T09:24:25.906Z,11.48
2019-03-30T09:26:53.941Z,11.47
2019-03-30T09:29:22.030Z,11.50
2019-03-30T09:31:50.144Z,11.57
2019-03-30T09:34:18.212Z,11.58
2019-03-30T09:36:46.426Z,11.64
2019-03-30T09:39:14.570Z,11.88
2019-03-30T09:41:42.590Z,12.09
2019-03-30T09:44:10.613Z,12.23
2019-03-30T09:46:38.633Z,12.03
2019-03-30T09:49:06.667Z,11.77
2019-03-30T09:51:34.709Z,11.71
2019-03-30T09:54:02.797Z,11.68
2019-03-30T09:56:32.438Z,11.89
2019-03-30T09:59:00.472Z,12.22
2019-03-30T10:01:28.472Z,12.19
2019-03-30T10:03:56.563Z,11.92
2019-03-30T10:06:33.897Z,11.76
2019-03-30T10:08:54.568Z,11.93
2019-03-30T10:11:22.544Z,11.98
2019-03-30T10:13:50.659Z,12.01
2019-03-30T10:16:18.640Z,12.20
2019-03-30T10:18:46.713Z,12.46
2019-03-30T10:21:14.918Z,12.51
2019-03-30T10:23:43.075Z,12.41
2019-03-30T10:26:11.148Z,12.56
2019-03-30T10:28:39.152Z,12.74
2019-03-30T10:31:07.216Z,12.52
2019-03-30T10:33:35.254Z,12.39
2019-03-30T10:36:03.502Z,12.28
2019-03-30T10:38:31.628Z,12.26
2019-03-30T10:40:59.628Z,12.20
2019-03-30T10:43:27.796Z,12.25
2019-03-30T10:45:55.835Z,12.19
2019-03-30T10:48:23.863Z,12.12
2019-03-30T10:50:51.916Z,12.13
2019-03-30T10:53:19.971Z,12.22
2019-03-30T10:55:48.009Z,12.30
2019-03-30T10:58:16.028Z,12.46
2019-03-30T11:00:44.124Z,12.53
2019-03-30T11:03:12.328Z,12.71
2019-03-30T11:05:40.476Z,12.85
2019-03-30T11:08:08.567Z,12.78
2019-03-30T11:10:36.788Z,12.62
2019-03-30T11:13:04.977Z,12.65
2019-03-30T11:15:34.298Z,12.83
2019-03-30T11:18:02.866Z,13.06
2019-03-30T11:20:31.021Z,13.21
2019-03-30T11:22:59.062Z,13.24
2019-03-30T11:25:27.203Z,13.15
2019-03-30T11:27:55.274Z,13.05
2019-03-30T11:30:23.238Z,13.16
2019-03-30T11:32:51.232Z,13.03
2019-03-30T11:35:19.305Z,13.12
2019-03-30T11:37:47.290Z,13.27
2019-03-30T11:40:15.369Z,13.41
2019-03-30T11:42:44.104Z,13.47
2019-03-30T11:45:13.370Z,13.78
2019-03-30T11:47:42.105Z,13.84
2019-03-30T11:50:10.130Z,13.80
2019-03-30T11:52:38.342Z,13.74
2019-03-30T11:55:20.539Z,13.85
2019-03-30T11:57:37.251Z,13.89
2019-03-30T12:00:05.809Z,13.79
2019-03-30T12:02:33.812Z,13.87
2019-03-30T12:05:01.826Z,14.02
2019-03-30T12:07:29.861Z,13.87
2019-03-30T12:09:57.987Z,13.81
2019-03-30T12:12:25.998Z,13.83
2019-03-30T12:14:54.034Z,13.75
2019-03-30T12:17:22.448Z,13.67
2019-03-30T12:19:50.591Z,13.92
2019-03-30T12:22:18.654Z,14.16
2019-03-30T12:24:46.883Z,13.96
2019-03-30T12:27:15.117Z,13.82
2019-03-30T12:29:44.631Z,13.93
2019-03-30T12:32:12.787Z,13.98
2019-03-30T12:34:41.420Z,14.04
2019-03-30T12:37:09.702Z,14.25
2019-03-30T12:39:37.706Z,14.23
2019-03-30T12:42:05.863Z,14.15
2019-03-30T12:44:33.936Z,14.15
2019-03-30T12:47:02.087Z,14.24
2019-03-30T12:49:30.130Z,14.08
2019-03-30T12:51:58.152Z,14.07
2019-03-30T12:54:26.144Z,13.99
2019-03-30T12:56:54.160Z,14.14
2019-03-30T12:59:22.201Z,14.20
2019-03-30T13:01:50.800Z,14.23
2019-03-30T13:04:19.098Z,14.25
2019-03-30T13:06:47.209Z,14.32
2019-03-30T13:09:15.633Z,14.29
2019-03-30T13:11:43.911Z,14.36
2019-03-30T13:14:12.225Z,14.43
2019-03-30T13:16:40.256Z,14.31
2019-03-30T13:19:08.495Z,14.32
2019-03-30T13:21:36.586Z,14.33
2019-03-30T13:24:04.586Z,14.40
2019-03-30T13:26:32.621Z,14.35
2019-03-30T13:29:00.889Z,14.49
2019-03-30T13:31:28.912Z,14.57
2019-03-30T13:33:57.120Z,14.40
2019-03-30T13:36:43.448Z,14.31
2019-03-30T13:39:11.816Z,14.48
2019-03-30T13:41:39.769Z,14.45
2019-03-30T13:44:07.800Z,14.28
2019-03-30T13:46:35.815Z,14.11
2019-03-30T13:49:03.927Z,14.33
2019-03-30T13:51:31.951Z,14.32
2019-03-30T13:53:59.932Z,14.27
2019-03-30T13:56:27.962Z,14.28
2019-03-30T13:58:55.985Z,14.34
2019-03-30T14:01:24.013Z,14.43
2019-03-30T14:03:52.070Z,14.45
2019-03-30T14:06:20.109Z,14.48
2019-03-30T14:08:48.053Z,14.36
2019-03-30T14:11:16.081Z,14.50
2019-03-30T14:13:44.198Z,14.36
2019-03-30T14:16:12.218Z,14.29
2019-03-30T14:18:40.211Z,14.28
2019-03-30T14:21:08.276Z,14.45
2019-03-30T14:23:36.368Z,14.18
2019-03-30T14:26:04.539Z,14.18
2019-03-30T14:28:32.629Z,14.19
2019-03-30T14:31:00.853Z,14.18
2019-03-30T14:33:29.055Z,14.21
2019-03-30T14:35:57.084Z,14.12
2019-03-30T14:38:25.160Z,14.33
2019-03-30T14:40:53.149Z,14.37
2019-03-30T14:43:21.199Z,14.23
2019-03-30T14:45:49.345Z,14.23
2019-03-30T14:48:17.365Z,14.25
2019-03-30T14:50:45.407Z,14.14
2019-03-30T14:53:13.472Z,14.17
2019-03-30T14:55:41.531Z,14.22
2019-03-30T14:58:09.593Z,14.15
2019-03-30T15:00:37.747Z,14.24
2019-03-30T15:03:05.840Z,14.18
2019-03-30T15:05:34.015Z,14.01
2019-03-30T15:08:02.202Z,13.83
2019-03-30T15:10:30.184Z,13.79
2019-03-30T15:12:58.220Z,13.90
2019-03-30T15:15:26.366Z,13.83
2019-03-30T15:17:54.417Z,13.75
2019-03-30T15:20:22.473Z,13.72
2019-03-30T15:22:50.495Z,13.70
2019-03-30T15:25:18.633Z,13.63
2019-03-30T15:27:46.660Z,13.47
2019-03-30T15:30:14.967Z,13.51
2019-03-30T15:32:43.139Z,13.44
2019-03-30T15:35:11.304Z,13.45
2019-03-30T15:37:39.772Z,13.35
2019-03-30T15:40:08.347Z,13.41
2019-03-30T15:42:39.878Z,13.33
2019-03-30T15:45:06.980Z,13.21
2019-03-30T15:47:36.016Z,13.23
2019-03-30T15:50:04.567Z,13.18
2019-03-30T15:52:33.029Z,13.22
2019-03-30T15:55:01.328Z,13.15
2019-03-30T15:57:29.301Z,13.13
2019-03-30T15:59:57.318Z,13.07
2019-03-30T16:02:25.405Z,13.13
2019-03-30T16:04:53.505Z,13.09
2019-03-30T16:07:21.571Z,12.99
2019-03-30T16:09:51.764Z,12.93
2019-03-30T16:12:19.798Z,12.89
2019-03-30T16:14:47.869Z,12.85
2019-03-30T16:17:15.884Z,12.81
2019-03-30T16:19:43.866Z,12.66
2019-03-30T16:22:12.264Z,12.65
2019-03-30T16:24:41.405Z,12.62
2019-03-30T16:27:09.471Z,12.53
2019-03-30T16:29:37.565Z,12.49
2019-03-30T16:32:05.635Z,12.45
2019-03-30T16:34:33.823Z,12.41
2019-03-30T16:37:01.926Z,12.35
2019-03-30T16:39:29.909Z,12.26
2019-03-30T16:41:57.935Z,12.20
2019-03-30T16:44:26.014Z,12.18
2019-03-30T16:46:57.287Z,12.06
2019-03-30T16:49:23.812Z,12.03
2019-03-30T16:51:51.874Z,11.93
2019-03-30T16:54:19.986Z,11.90
2019-03-30T16:56:48.136Z,11.80
2019-03-30T16:59:16.217Z,11.76
2019-03-30T17:01:44.344Z,11.73
2019-03-30T17:04:12.529Z,11.78
2019-03-30T17:06:40.615Z,11.72
2019-03-30T17:09:09.045Z,11.71
2019-03-30T17:11:37.548Z,11.67
2019-03-30T17:14:05.854Z,11.62
2019-03-30T17:16:33.946Z,11.57
2019-03-30T17:19:01.894Z,11.56
2019-03-30T17:21:31.931Z,11.53
2019-03-30T17:24:00.159Z,11.54
2019-03-30T17:26:28.072Z,11.52
2019-03-30T17:28:56.118Z,11.53
2019-03-30T17:31:27.245Z,11.53
2019-03-30T17:33:56.078Z,11.57
2019-03-30T17:36:25.703Z,11.51
2019-03-30T17:38:54.216Z,11.49
2019-03-30T17:41:24.917Z,11.49
2019-03-30T17:43:54.122Z,11.48
2019-03-30T17:46:22.451Z,11.48
2019-03-30T17:48:50.385Z,11.48
2019-03-30T17:51:20.494Z,11.43
2019-03-30T17:53:49.437Z,11.41
2019-03-30T17:56:17.479Z,11.36
2019-03-30T17:58:45.477Z,11.32
2019-03-30T18:01:15.708Z,11.31
2019-03-30T18:03:43.653Z,11.32
2019-03-30T18:06:11.817Z,11.35
2019-03-30T18:08:39.972Z,11.33
2019-03-30T18:11:08.123Z,11.26
2019-03-30T18:13:36.924Z,11.26
2019-03-30T18:16:05.103Z,11.24
2019-03-30T18:18:33.414Z,11.24
2019-03-30T18:21:01.634Z,11.17
2019-03-30T18:23:29.635Z,11.09
2019-03-30T18:25:57.690Z,11.09
2019-03-30T18:28:27.260Z,10.98
2019-03-30T18:30:55.996Z,10.89
2019-03-30T18:33:24.657Z,10.96
2019-03-30T18:35:53.279Z,11.01
2019-03-30T18:38:21.972Z,10.94
2019-03-30T18:40:50.746Z,10.87
2019-03-30T18:43:19.416Z,10.85
2019-03-30T18:45:47.464Z,10.83
2019-03-30T18:48:16.967Z,10.79
2019-03-30T18:50:48.682Z,10.77
2019-03-30T18:53:18.167Z,10.68
2019-03-30T18:55:46.613Z,10.58
2019-03-30T18:58:14.815Z,10.60
2019-03-30T19:00:42.841Z,10.41
2019-03-30T19:03:11.325Z,10.51
2019-03-30T19:05:39.314Z,10.55
2019-03-30T19:08:07.665Z,10.64
2019-03-30T19:10:35.819Z,10.61
2019-03-30T19:13:03.830Z,10.55
2019-03-30T19:15:32.071Z,10.33
2019-03-30T19:18:00.047Z,10.51
2019-03-30T19:20:28.060Z,10.57
2019-03-30T19:22:56.154Z,10.64
2019-03-30T19:25:24.315Z,10.67
2019-03-30T19:27:52.595Z,10.62
2019-03-30T19:30:21.075Z,10.84
2019-03-30T19:32:49.223Z,10.77
2019-03-30T19:35:17.317Z,10.73
2019-03-30T19:37:45.354Z,10.83
2019-03-30T19:40:13.589Z,10.76
2019-03-30T19:42:43.152Z,10.56
2019-03-30T19:45:11.540Z,10.71
2019-03-30T19:47:39.717Z,10.63
2019-03-30T19:50:08.163Z,10.44
2019-03-30T19:52:40.008Z,10.39
2019-03-30T19:55:08.269Z,10.09
2019-03-30T19:57:36.572Z,10.04
2019-03-30T20:00:06.402Z,9.89
2019-03-30T20:02:34.350Z,9.84
2019-03-30T20:05:03.290Z,9.94
2019-03-30T20:07:31.827Z,9.90
2019-03-30T20:10:00.515Z,9.86
2019-03-30T20:12:29.467Z,9.76
2019-03-30T20:14:57.644Z,9.71
2019-03-30T20:17:25.648Z,9.48
2019-03-30T20:19:53.682Z,9.48
2019-03-30T20:22:22.095Z,9.59
2019-03-30T20:24:51.430Z,9.56
2019-03-30T20:27:22.319Z,9.56
2019-03-30T20:29:51.523Z,9.46
2019-03-30T20:32:19.510Z,9.29
2019-03-30T20:34:48.767Z,9.33
2019-03-30T20:37:16.723Z,9.32
2019-03-30T20:39:44.715Z,9.35
2019-03-30T20:42:12.922Z,9.49
2019-03-30T20:44:41.659Z,9.57
2019-03-30T20:47:09.793Z,9.66
2019-03-30T20:49:37.861Z,9.48
2019-03-30T20:52:05.822Z,8.50
2019-03-30T20:54:33.940Z,9.31
2019-03-30T20:57:02.035Z,9.41
2019-03-30T20:59:39.774Z,9.41
2019-03-30T21:02:02.133Z,9.22
2019-03-30T21:04:30.123Z,8.91
2019-03-30T21:06:58.320Z,8.75
2019-03-30T21:09:26.407Z,8.70
2019-03-30T21:11:54.793Z,8.71
2019-03-30T21:14:22.788Z,8.97
2019-03-30T21:16:50.742Z,8.98
2019-03-30T21:19:18.792Z,8.90
2019-03-30T21:21:47.246Z,8.75
2019-03-30T21:24:15.477Z,8.74
2019-03-30T21:26:43.577Z,8.61
2019-03-30T21:29:12.072Z,8.54
2019-03-30T21:31:40.031Z,8.52
2019-03-30T21:34:08.137Z,8.55
2019-03-30T21:36:36.101Z,8.69
2019-03-30T21:39:06.378Z,8.65
2019-03-30T21:41:34.469Z,8.28
2019-03-30T21:44:02.719Z,8.40
2019-03-30T21:46:30.656Z,8.37
2019-03-30T21:48:59.003Z,8.28
2019-03-30T21:51:26.979Z,8.17
2019-03-30T21:53:54.908Z,8.09
2019-03-30T21:56:23.108Z,7.99
2019-03-30T21:58:51.304Z,7.90
2019-03-30T22:01:19.356Z,7.99
2019-03-30T22:03:47.399Z,7.98
2019-03-30T22:06:15.810Z,7.98
2019-03-30T22:08:44.024Z,7.93
2019-03-30T22:11:11.952Z,8.08
2019-03-30T22:13:40.087Z,7.95
2019-03-30T22:16:08.340Z,7.74
2019-03-30T22:18:36.313Z,7.91
2019-03-30T22:21:04.445Z,7.90
2019-03-30T22:23:32.884Z,7.98
2019-03-30T22:26:01.013Z,7.88
2019-03-30T22:28:29.194Z,7.87
2019-03-30T22:30:57.176Z,7.78
2019-03-30T22:33:25.099Z,7.94
2019-03-30T22:35:53.205Z,7.95
2019-03-30T22:38:21.198Z,7.86
2019-03-30T22:40:49.199Z,7.91
2019-03-30T22:43:18.061Z,7.81
2019-03-30T22:45:46.107Z,7.85
2019-03-30T22:48:14.162Z,7.86
2019-03-30T22:50:42.245Z,7.75
2019-03-30T22:53:10.166Z,7.55
2019-03-30T22:55:38.159Z,7.60
2019-03-30T22:58:06.170Z,7.65
2019-03-30T23:00:52.348Z,7.72
2019-03-30T23:03:20.373Z,7.66
2019-03-30T23:05:48.965Z,7.63
2019-03-30T23:08:17.065Z,7.59
2019-03-30T23:10:45.150Z,7.60
2019-03-30T23:13:13.084Z,7.59
2019-03-30T23:15:41.110Z,7.47
2019-03-30T23:18:09.155Z,7.41
2019-03-30T23:20:37.206Z,7.35
2019-03-30T23:23:05.216Z,7.42
2019-03-30T23:25:33.196Z,7.41
2019-03-30T23:28:01.360Z,7.15
2019-03-30T23:30:29.339Z,7.10
2019-03-30T23:32:57.296Z,7.26
2019-03-30T23:35:25.297Z,7.11
2019-03-30T23:37:53.298Z,6.92
2019-03-30T23:40:21.252Z,6.91
2019-03-30T23:42:49.275Z,6.88
2019-03-30T23:45:17.417Z,6.83
2019-03-30T23:47:45.634Z,6.98
2019-03-30T23:50:13.794Z,6.94
2019-03-30T23:52:41.870Z,6.79
2019-03-30T23:55:09.922Z,6.78
2019-03-30T23:57:37.916Z,6.70
